FNBG/BUG METAR and TAF weather

Enter ICAO airport designator
Station Type Date Time Source
FNBG METAR 2019/08/21 08:00 UTC NOAA

FNBG 210800Z 00000KT 5000 BR BKN018 21/18 Q1018


Station Type Date Time Source
FNBG Decoded METAR 2019/08/21 08:00 UTC NOAA

Station name not available
Aug 21, 2019 - 04:00 AM EDT / 2019.08.21 0800 UTC
Wind: Calm:0
Visibility: 3 mile(s):0
Sky conditions: mostly cloudy
Weather: mist
Temperature: 69 F (21 C)
Dew Point: 64 F (18 C)
Relative Humidity: 82%
Pressure (altimeter): 30.06 in. Hg (1018 hPa)
ob: FNBG 210800Z 00000KT 5000 BR BKN018 21/18 Q1018
cycle: 8

Station Type Date Time Source
FNBG TAF 2019/08/21 12:45 UTC NOAA

TAF FNBG 211045Z 2112/2124 30010KT 9999 FEW025
BECMG 2122/2124 18006KT 9000 SCT018

Example: see airport list